createdAt,value
2023-05-13T00:00:18.337Z,6.98
2023-05-13T00:02:45.582Z,7.00
2023-05-13T00:05:12.674Z,7.05
2023-05-13T00:07:41.894Z,7.05
2023-05-13T00:10:09.602Z,6.96
2023-05-13T00:12:37.609Z,6.92
2023-05-13T00:15:05.380Z,6.92
2023-05-13T00:17:32.711Z,6.87
2023-05-13T00:20:00.236Z,6.70
2023-05-13T00:22:27.601Z,6.60
2023-05-13T00:24:54.628Z,6.60
2023-05-13T00:27:21.697Z,6.63
2023-05-13T00:29:48.726Z,6.66
2023-05-13T00:32:15.785Z,6.63
2023-05-13T00:34:43.106Z,6.60
2023-05-13T00:37:11.344Z,6.59
2023-05-13T00:39:38.575Z,6.62
2023-05-13T00:42:06.266Z,6.61
2023-05-13T00:44:34.937Z,6.62
2023-05-13T00:47:02.878Z,6.66
2023-05-13T00:49:30.002Z,6.69
2023-05-13T00:51:57.241Z,6.73
2023-05-13T00:54:24.351Z,6.77
2023-05-13T00:56:56.714Z,6.80
2023-05-13T00:59:26.461Z,6.78
2023-05-13T01:02:17.136Z,6.74
2023-05-13T01:05:09.792Z,6.72
2023-05-13T01:07:36.771Z,6.66
2023-05-13T01:10:07.575Z,6.61
2023-05-13T01:12:41.618Z,6.60
2023-05-13T01:15:11.021Z,6.59
2023-05-13T01:17:57.934Z,6.60
2023-05-13T01:20:27.705Z,6.62
2023-05-13T01:22:56.902Z,6.63
2023-05-13T01:25:26.006Z,6.65
2023-05-13T01:27:54.389Z,6.66
2023-05-13T01:30:24.173Z,6.66
2023-05-13T01:32:52.762Z,6.68
2023-05-13T01:35:21.365Z,6.67
2023-05-13T01:37:50.525Z,6.64
2023-05-13T01:40:31.832Z,6.63
2023-05-13T01:43:05.320Z,6.58
2023-05-13T01:45:33.911Z,6.56
2023-05-13T01:48:01.666Z,6.56
2023-05-13T01:50:37.396Z,6.58
2023-05-13T01:53:05.691Z,6.58
2023-05-13T01:55:32.802Z,6.59
2023-05-13T01:58:00.940Z,6.60
2023-05-13T02:00:28.030Z,6.62
2023-05-13T02:02:55.558Z,6.64
2023-05-13T02:05:23.487Z,6.65
2023-05-13T02:07:50.925Z,6.68
2023-05-13T02:10:17.961Z,6.69
2023-05-13T02:12:45.324Z,6.71
2023-05-13T02:15:12.740Z,6.73
2023-05-13T02:17:39.887Z,6.74
2023-05-13T02:20:07.938Z,6.75
2023-05-13T02:22:35.773Z,6.78
2023-05-13T02:25:04.633Z,6.82
2023-05-13T02:27:31.802Z,6.86
2023-05-13T02:29:58.978Z,6.91
2023-05-13T02:32:26.916Z,6.95
2023-05-13T02:34:54.006Z,6.98
2023-05-13T02:37:21.067Z,7.03
2023-05-13T02:39:52.637Z,7.10
2023-05-13T02:42:19.740Z,7.17
2023-05-13T02:44:48.778Z,7.25
2023-05-13T02:47:16.486Z,7.30
2023-05-13T02:49:43.607Z,7.35
2023-05-13T02:52:11.066Z,7.43
2023-05-13T02:54:40.107Z,7.51
2023-05-13T02:57:07.553Z,7.61
2023-05-13T02:59:35.075Z,7.71
2023-05-13T03:02:02.226Z,7.81
2023-05-13T03:04:29.441Z,7.89
2023-05-13T03:06:56.696Z,7.97
2023-05-13T03:09:24.033Z,8.05
2023-05-13T03:11:51.525Z,8.12
2023-05-13T03:14:18.612Z,8.18
2023-05-13T03:16:45.739Z,8.26
2023-05-13T03:19:13.986Z,8.38
2023-05-13T03:21:41.314Z,8.51
2023-05-13T03:24:09.730Z,8.67
2023-05-13T03:26:36.812Z,8.85
2023-05-13T03:29:03.917Z,9.07
2023-05-13T03:31:32.243Z,9.27
2023-05-13T03:33:59.920Z,9.51
2023-05-13T03:36:27.700Z,9.75
2023-05-13T03:38:54.861Z,9.98
2023-05-13T03:41:22.142Z,10.23
2023-05-13T03:43:49.561Z,10.47
2023-05-13T03:46:17.261Z,10.69
2023-05-13T03:48:44.722Z,10.92
2023-05-13T03:51:11.963Z,11.14
2023-05-13T03:53:39.595Z,11.34
2023-05-13T03:56:06.739Z,11.54
2023-05-13T03:58:34.101Z,11.76
2023-05-13T04:01:01.291Z,11.96
2023-05-13T04:03:28.855Z,12.17
2023-05-13T04:05:56.116Z,12.43
2023-05-13T04:08:23.254Z,12.70
2023-05-13T04:10:50.441Z,12.99
2023-05-13T04:13:19.038Z,13.27
2023-05-13T04:15:46.082Z,13.55
2023-05-13T04:18:13.116Z,13.82
2023-05-13T04:20:40.644Z,14.09
2023-05-13T04:23:08.036Z,14.34
2023-05-13T04:25:36.358Z,14.56
2023-05-13T04:28:03.794Z,14.77
2023-05-13T04:30:36.636Z,14.92
2023-05-13T04:33:04.807Z,15.05
2023-05-13T04:35:32.946Z,15.24
2023-05-13T04:38:02.160Z,15.42
2023-05-13T04:40:29.692Z,15.58
2023-05-13T04:42:59.788Z,15.73
2023-05-13T04:45:32.066Z,15.90
2023-05-13T04:48:00.248Z,16.00
2023-05-13T04:50:27.829Z,16.11
2023-05-13T04:52:56.821Z,16.25
2023-05-13T04:55:25.979Z,16.44
2023-05-13T04:57:54.126Z,16.61
2023-05-13T05:00:21.946Z,16.71
2023-05-13T05:02:50.829Z,16.79
2023-05-13T05:05:18.580Z,16.90
2023-05-13T05:07:46.522Z,17.01
2023-05-13T05:10:15.965Z,17.10
2023-05-13T05:12:48.749Z,17.24
2023-05-13T05:15:16.253Z,17.29
2023-05-13T05:17:46.625Z,17.31
2023-05-13T05:20:13.941Z,17.32
2023-05-13T05:22:42.483Z,17.36
2023-05-13T05:25:11.947Z,17.44
2023-05-13T05:27:39.432Z,17.52
2023-05-13T05:30:09.226Z,17.65
2023-05-13T05:32:37.358Z,17.80
2023-05-13T05:35:06.158Z,17.99
2023-05-13T05:37:34.764Z,18.17
2023-05-13T05:40:01.940Z,18.31
2023-05-13T05:42:29.760Z,18.44
2023-05-13T05:44:56.861Z,18.61
2023-05-13T05:47:24.648Z,18.75
2023-05-13T05:49:52.035Z,18.89
2023-05-13T05:52:19.631Z,18.98
2023-05-13T05:54:46.793Z,19.08
2023-05-13T05:57:14.700Z,19.22
2023-05-13T05:59:41.894Z,19.41
2023-05-13T06:02:09.197Z,19.57
2023-05-13T06:04:36.370Z,19.60
2023-05-13T06:07:04.240Z,19.60
2023-05-13T06:09:31.727Z,19.59
2023-05-13T06:11:58.851Z,19.64
2023-05-13T06:14:26.096Z,19.76
2023-05-13T06:16:54.949Z,19.82
2023-05-13T06:19:22.966Z,19.91
2023-05-13T06:21:50.126Z,20.02
2023-05-13T06:24:17.350Z,20.13
2023-05-13T06:26:45.564Z,20.29
2023-05-13T06:29:14.865Z,20.47
2023-05-13T06:31:42.151Z,20.55
2023-05-13T06:34:16.914Z,20.59
2023-05-13T06:36:44.688Z,20.55
2023-05-13T06:39:13.016Z,20.55
2023-05-13T06:41:41.038Z,20.64
2023-05-13T06:44:12.944Z,20.86
2023-05-13T06:46:44.669Z,21.09
2023-05-13T06:49:12.222Z,21.25
2023-05-13T06:51:39.387Z,21.42
2023-05-13T06:54:06.535Z,21.57
2023-05-13T06:56:34.896Z,21.69
2023-05-13T06:59:02.421Z,21.83
2023-05-13T07:01:29.614Z,21.95
2023-05-13T07:03:57.229Z,22.08
2023-05-13T07:06:24.383Z,22.09
2023-05-13T07:08:51.589Z,22.09
2023-05-13T07:11:18.869Z,22.11
2023-05-13T07:13:46.851Z,22.20
2023-05-13T07:16:15.327Z,22.36
2023-05-13T07:18:42.820Z,22.47
2023-05-13T07:21:10.594Z,22.54
2023-05-13T07:23:37.836Z,22.49
2023-05-13T07:26:05.000Z,22.39
2023-05-13T07:28:32.435Z,22.39
2023-05-13T07:30:59.777Z,22.40
2023-05-13T07:33:27.710Z,22.30
2023-05-13T07:35:54.983Z,22.26
2023-05-13T07:38:23.004Z,22.24
2023-05-13T07:40:50.825Z,22.27
2023-05-13T07:43:24.217Z,22.27
2023-05-13T07:45:51.749Z,22.26
2023-05-13T07:48:19.976Z,22.30
2023-05-13T07:50:47.359Z,22.44
2023-05-13T07:53:14.800Z,22.57
2023-05-13T07:55:42.422Z,22.69
2023-05-13T07:58:09.809Z,22.80
2023-05-13T08:00:37.444Z,22.76
2023-05-13T08:03:04.903Z,22.75
2023-05-13T08:05:32.380Z,22.84
2023-05-13T08:07:59.664Z,22.89
2023-05-13T08:10:26.754Z,22.78
2023-05-13T08:12:58.094Z,22.66
2023-05-13T08:15:27.315Z,22.73
2023-05-13T08:17:55.111Z,22.83
2023-05-13T08:20:26.851Z,22.92
2023-05-13T08:22:54.022Z,22.99
2023-05-13T08:25:21.803Z,22.99
2023-05-13T08:27:49.265Z,23.07
2023-05-13T08:30:17.069Z,23.18
2023-05-13T08:32:44.511Z,23.21
2023-05-13T08:35:11.880Z,23.04
2023-05-13T08:37:39.204Z,22.98
2023-05-13T08:40:07.220Z,23.05
2023-05-13T08:42:38.483Z,23.09
2023-05-13T08:45:08.773Z,23.15
2023-05-13T08:48:01.679Z,23.19
2023-05-13T08:50:30.062Z,23.31
2023-05-13T08:53:01.135Z,23.33
2023-05-13T08:55:29.124Z,23.42
2023-05-13T08:57:56.595Z,23.41
2023-05-13T09:00:24.546Z,23.41
2023-05-13T09:02:52.048Z,23.50
2023-05-13T09:05:20.822Z,23.47
2023-05-13T09:07:48.387Z,23.28
2023-05-13T09:10:17.946Z,23.17
2023-05-13T09:12:46.300Z,23.05
2023-05-13T09:15:16.065Z,22.78
2023-05-13T09:17:45.784Z,22.57
2023-05-13T09:20:15.355Z,22.41
2023-05-13T09:23:00.457Z,22.29
2023-05-13T09:25:29.067Z,22.19
2023-05-13T09:27:59.128Z,21.99
2023-05-13T09:30:28.263Z,21.89
2023-05-13T09:33:11.690Z,21.82
2023-05-13T09:35:41.074Z,21.72
2023-05-13T09:38:20.264Z,21.65
2023-05-13T09:41:05.597Z,21.66
2023-05-13T09:43:34.189Z,21.77
2023-05-13T09:46:03.494Z,21.93
2023-05-13T09:48:34.103Z,22.08
2023-05-13T09:51:01.585Z,22.26
2023-05-13T09:53:29.276Z,22.46
2023-05-13T09:55:58.841Z,22.63
2023-05-13T09:58:31.027Z,22.82
2023-05-13T10:00:59.040Z,22.97
2023-05-13T10:03:28.924Z,23.02
2023-05-13T10:06:00.465Z,22.94
2023-05-13T10:08:28.961Z,22.69
2023-05-13T10:10:56.987Z,22.43
2023-05-13T10:13:25.072Z,22.30
2023-05-13T12:20:10.003Z,22.58
2023-05-13T12:22:43.811Z,22.36
2023-05-13T12:25:40.288Z,22.18
2023-05-13T12:28:12.077Z,22.04
2023-05-13T12:30:45.051Z,22.00
2023-05-13T12:33:16.950Z,22.05
2023-05-13T12:35:45.402Z,22.15
2023-05-13T12:38:19.261Z,22.29
2023-05-13T12:40:48.189Z,22.44
2023-05-13T12:43:17.700Z,22.54
2023-05-13T12:45:46.313Z,22.57
2023-05-13T12:48:14.773Z,22.52
2023-05-13T12:50:41.855Z,22.41
2023-05-13T12:53:09.020Z,22.30
2023-05-13T12:55:40.322Z,22.26
2023-05-13T12:58:11.359Z,22.29
2023-05-13T13:00:38.518Z,22.35
2023-05-13T13:03:06.150Z,22.42
2023-05-13T13:05:33.674Z,22.48
2023-05-13T13:08:05.528Z,22.56
2023-05-13T13:10:32.867Z,22.64
2023-05-13T13:12:59.889Z,22.71
2023-05-13T13:15:26.984Z,22.77
2023-05-13T13:17:54.038Z,22.82
2023-05-13T13:20:21.141Z,22.85
2023-05-13T13:22:48.213Z,22.86
2023-05-13T13:25:15.514Z,22.80
2023-05-13T13:27:42.562Z,22.68
2023-05-13T13:30:09.947Z,22.56
2023-05-13T13:32:37.048Z,22.41
2023-05-13T13:35:05.808Z,22.28
2023-05-13T13:37:32.896Z,22.17
2023-05-13T13:39:59.895Z,22.06
2023-05-13T13:42:40.193Z,21.96
2023-05-13T13:45:11.037Z,21.86
2023-05-13T13:47:38.604Z,21.77
2023-05-13T13:50:06.480Z,21.68
2023-05-13T13:52:33.624Z,21.59
2023-05-13T13:55:00.806Z,21.50
2023-05-13T13:57:27.878Z,21.38
2023-05-13T13:59:55.075Z,21.26
2023-05-13T14:02:22.553Z,21.17
2023-05-13T14:04:49.610Z,21.09
2023-05-13T14:07:16.834Z,21.01
2023-05-13T14:09:43.905Z,20.95
2023-05-13T14:12:10.921Z,20.91
2023-05-13T14:14:37.960Z,20.90
2023-05-13T14:17:05.127Z,20.90
2023-05-13T14:19:32.141Z,20.88
2023-05-13T14:21:59.239Z,20.89
2023-05-13T14:24:27.715Z,20.88
2023-05-13T14:26:55.239Z,20.87
2023-05-13T14:29:22.401Z,20.87
2023-05-13T14:31:49.787Z,20.86
2023-05-13T14:34:16.859Z,20.85
2023-05-13T14:36:43.954Z,20.87
2023-05-13T14:39:11.186Z,20.91
2023-05-13T14:41:39.520Z,20.94
2023-05-13T14:44:06.691Z,20.94
2023-05-13T14:46:37.325Z,20.97
2023-05-13T14:49:04.447Z,21.03
2023-05-13T14:51:31.671Z,21.07
2023-05-13T14:53:58.659Z,21.09
2023-05-13T14:56:25.712Z,21.08
2023-05-13T14:58:53.614Z,21.06
2023-05-13T15:01:20.815Z,21.01
2023-05-13T15:03:47.827Z,20.95
2023-05-13T15:06:15.078Z,20.90
2023-05-13T15:08:42.222Z,20.87
2023-05-13T15:11:09.277Z,20.83
2023-05-13T15:13:37.143Z,20.78
2023-05-13T15:16:05.033Z,20.67
2023-05-13T15:18:32.445Z,20.56
2023-05-13T15:20:59.511Z,20.50
2023-05-13T15:23:26.517Z,20.45
2023-05-13T15:25:53.581Z,20.42
2023-05-13T15:28:20.746Z,20.40
2023-05-13T15:30:47.855Z,20.37
2023-05-13T15:33:15.059Z,20.36
2023-05-13T15:35:43.072Z,20.34
2023-05-13T15:38:10.946Z,20.34
2023-05-13T15:40:38.733Z,20.35
2023-05-13T15:43:05.838Z,20.36
2023-05-13T15:45:32.918Z,20.36
2023-05-13T15:47:59.974Z,20.38
2023-05-13T15:50:27.659Z,20.41
2023-05-13T15:52:55.532Z,20.42
2023-05-13T15:55:22.955Z,20.43
2023-05-13T15:57:50.562Z,20.44
2023-05-13T16:00:18.806Z,20.44
2023-05-13T16:02:45.854Z,20.42
2023-05-13T16:05:15.479Z,20.40
2023-05-13T16:07:42.959Z,20.34
2023-05-13T16:10:10.508Z,20.28
2023-05-13T16:12:37.921Z,20.20
2023-05-13T16:15:06.534Z,20.12
2023-05-13T16:17:33.701Z,20.04
2023-05-13T16:20:00.871Z,19.98
2023-05-13T16:22:38.149Z,19.91
2023-05-13T16:25:10.193Z,19.82
2023-05-13T16:27:38.702Z,19.71
2023-05-13T16:30:07.600Z,19.58
2023-05-13T16:32:35.213Z,19.47
2023-05-13T16:35:03.696Z,19.32
2023-05-13T16:37:31.709Z,19.17
2023-05-13T16:39:59.024Z,18.96
2023-05-13T16:42:26.308Z,18.80
2023-05-13T16:44:53.336Z,18.64
2023-05-13T16:47:20.470Z,18.47
2023-05-13T16:49:50.067Z,18.29
2023-05-13T16:52:17.190Z,18.14
2023-05-13T16:54:44.932Z,18.03
2023-05-13T16:57:12.068Z,17.92
2023-05-13T16:59:39.243Z,17.79
2023-05-13T17:02:07.584Z,17.64
2023-05-13T17:04:35.352Z,17.51
2023-05-13T17:07:03.257Z,17.37
2023-05-13T17:09:30.944Z,17.25
2023-05-13T17:11:58.215Z,17.11
2023-05-13T17:14:25.400Z,16.99
2023-05-13T17:16:52.754Z,16.86
2023-05-13T17:19:20.000Z,16.71
2023-05-13T17:21:47.338Z,16.55
2023-05-13T17:24:14.454Z,16.38
2023-05-13T17:26:41.481Z,16.19
2023-05-13T17:29:08.520Z,16.02
2023-05-13T17:31:35.818Z,15.86
2023-05-13T17:34:02.908Z,15.73
2023-05-13T17:36:30.182Z,15.66
2023-05-13T17:38:57.261Z,15.59
2023-05-13T17:41:24.509Z,15.51
2023-05-13T17:43:51.768Z,15.43
2023-05-13T17:46:18.845Z,15.36
2023-05-13T17:48:46.051Z,15.27
2023-05-13T17:51:13.101Z,15.20
2023-05-13T17:53:40.178Z,15.13
2023-05-13T17:56:10.661Z,15.06
2023-05-13T17:58:37.747Z,14.98
2023-05-13T18:01:04.926Z,14.88
2023-05-13T18:03:31.939Z,14.71
2023-05-13T18:05:59.110Z,14.54
2023-05-13T18:08:26.432Z,14.46
2023-05-13T18:10:53.492Z,14.40
2023-05-13T18:13:20.508Z,14.36
2023-05-13T18:15:47.665Z,14.32
2023-05-13T18:18:16.319Z,14.28
2023-05-13T18:20:43.400Z,14.24
2023-05-13T18:23:10.594Z,14.21
2023-05-13T18:25:48.579Z,14.17
2023-05-13T18:28:22.004Z,14.12
2023-05-13T18:30:49.039Z,14.05
2023-05-13T18:33:16.060Z,13.95
2023-05-13T18:35:43.150Z,13.89
2023-05-13T18:38:10.278Z,13.84
2023-05-13T18:40:37.319Z,13.79
2023-05-13T18:43:04.412Z,13.70
2023-05-13T18:45:31.485Z,13.59
2023-05-13T18:47:58.726Z,13.50
2023-05-13T18:50:25.796Z,13.43
2023-05-13T18:52:52.851Z,13.39
2023-05-13T18:55:19.928Z,13.36
2023-05-13T18:57:47.464Z,13.33
2023-05-13T19:00:14.836Z,13.29
2023-05-13T19:02:42.156Z,13.27
2023-05-13T19:05:09.555Z,13.27
2023-05-13T19:07:37.288Z,13.20
2023-05-13T19:10:04.566Z,13.09
2023-05-13T19:12:31.622Z,13.03
2023-05-13T19:14:58.641Z,13.01
2023-05-13T19:17:26.232Z,12.99
2023-05-13T19:19:53.335Z,12.96
2023-05-13T19:22:20.408Z,12.91
2023-05-13T19:24:47.568Z,12.87
2023-05-13T19:27:14.732Z,12.84
2023-05-13T19:29:41.763Z,12.81
2023-05-13T19:32:08.788Z,12.79
2023-05-13T19:34:35.887Z,12.76
2023-05-13T19:37:02.982Z,12.75
2023-05-13T19:39:30.047Z,12.74
2023-05-13T19:41:57.121Z,12.71
2023-05-13T19:44:27.810Z,12.67
2023-05-13T19:46:55.435Z,12.62
2023-05-13T19:49:22.706Z,12.56
2023-05-13T19:51:49.692Z,12.45
2023-05-13T19:54:16.765Z,12.23
2023-05-13T19:56:43.887Z,11.99
2023-05-13T19:59:10.936Z,11.86
2023-05-13T20:01:38.104Z,11.84
2023-05-13T20:04:05.204Z,11.84
2023-05-13T20:06:32.866Z,11.85
2023-05-13T20:09:01.064Z,11.87
2023-05-13T20:11:28.303Z,11.88
2023-05-13T20:13:56.070Z,11.90
2023-05-13T20:16:23.723Z,11.89
2023-05-13T20:18:50.917Z,11.88
2023-05-13T20:21:18.107Z,11.87
2023-05-13T20:23:45.136Z,11.80
2023-05-13T20:26:12.175Z,11.71
2023-05-13T20:28:39.206Z,11.69
2023-05-13T20:31:06.879Z,11.70
2023-05-13T20:33:33.962Z,11.72
2023-05-13T20:36:01.130Z,11.72
2023-05-13T20:38:28.265Z,11.70
2023-05-13T20:40:55.457Z,11.59
2023-05-13T20:43:22.444Z,11.41
2023-05-13T20:45:49.601Z,11.22
2023-05-13T20:48:16.749Z,10.99
2023-05-13T20:50:43.823Z,10.87
2023-05-13T20:53:10.900Z,10.78
2023-05-13T20:55:37.931Z,10.75
2023-05-13T20:58:04.985Z,10.74
2023-05-13T21:00:32.070Z,10.77
2023-05-13T21:02:59.978Z,10.82
2023-05-13T21:05:27.178Z,10.83
2023-05-13T21:07:54.270Z,10.82
2023-05-13T21:10:21.803Z,10.81
2023-05-13T21:12:49.279Z,10.80
2023-05-13T21:15:16.903Z,10.80
2023-05-13T21:17:44.102Z,10.82
2023-05-13T21:20:11.883Z,10.82
2023-05-13T21:22:38.895Z,10.78
2023-05-13T21:25:06.692Z,10.73
2023-05-13T21:27:33.730Z,10.67
2023-05-13T21:30:00.736Z,10.60
2023-05-13T21:32:27.745Z,10.56
2023-05-13T21:34:56.092Z,10.55
2023-05-13T21:37:23.366Z,10.53
2023-05-13T21:39:50.380Z,10.49
2023-05-13T21:42:17.458Z,10.43
2023-05-13T21:44:44.474Z,10.37
2023-05-13T21:47:11.501Z,10.32
2023-05-13T21:49:38.516Z,10.28
2023-05-13T21:52:05.904Z,10.26
2023-05-13T21:54:32.949Z,10.24
2023-05-13T21:57:01.201Z,10.21
2023-05-13T21:59:28.247Z,10.21
2023-05-13T22:01:55.404Z,10.19
2023-05-13T22:04:25.634Z,10.18
2023-05-13T22:06:53.556Z,10.16
2023-05-13T22:09:20.578Z,10.13
2023-05-13T22:11:47.608Z,10.11
2023-05-13T22:14:14.715Z,10.08
2023-05-13T22:16:41.848Z,10.05
2023-05-13T22:19:09.023Z,9.98
2023-05-13T22:21:36.284Z,9.91
2023-05-13T22:24:06.497Z,9.84
2023-05-13T22:26:33.540Z,9.80
2023-05-13T22:29:00.957Z,9.79
2023-05-13T22:31:28.040Z,9.78
2023-05-13T22:33:55.065Z,9.79
2023-05-13T22:36:22.075Z,9.80
2023-05-13T22:38:49.108Z,9.80
2023-05-13T22:41:18.993Z,9.81
2023-05-13T22:43:46.117Z,9.81
2023-05-13T22:46:13.193Z,9.81
2023-05-13T22:48:40.258Z,9.80
2023-05-13T22:51:07.330Z,9.78
2023-05-13T22:53:34.420Z,9.73
2023-05-13T22:56:01.468Z,9.60
2023-05-13T22:58:28.540Z,9.48
2023-05-13T23:00:55.608Z,9.42
2023-05-13T23:03:22.637Z,9.36
2023-05-13T23:05:49.866Z,9.32
2023-05-13T23:08:16.944Z,9.27
2023-05-13T23:10:43.978Z,9.24
2023-05-13T23:13:11.025Z,9.21
2023-05-13T23:15:38.104Z,9.17
2023-05-13T23:18:05.238Z,9.15
2023-05-13T23:20:32.388Z,9.11
2023-05-13T23:22:59.411Z,9.08
2023-05-13T23:25:26.445Z,9.04
2023-05-13T23:27:53.478Z,9.02
2023-05-13T23:30:20.627Z,8.99
2023-05-13T23:32:48.299Z,8.95
2023-05-13T23:35:15.470Z,8.92
2023-05-13T23:37:42.537Z,8.87
2023-05-13T23:40:10.200Z,8.82
2023-05-13T23:42:38.373Z,8.76
2023-05-13T23:45:05.897Z,8.69
2023-05-13T23:47:32.965Z,8.62
2023-05-13T23:50:00.145Z,8.59
2023-05-13T23:52:27.236Z,8.57
2023-05-13T23:54:54.291Z,8.53
2023-05-13T23:57:22.393Z,8.50
2023-05-13T23:59:49.589Z,8.47
